sensor_id;sensor_type;location;lat;lon;timestamp;P1;durP1;ratioP1;P2;durP2;ratioP2
14060;SDS011;7105;43.616;1.434;2023-08-12T00:01:41;9.52;;;5.80;;
14060;SDS011;7105;43.616;1.434;2023-08-12T00:04:07;10.68;;;5.93;;
14060;SDS011;7105;43.616;1.434;2023-08-12T00:06:32;9.98;;;5.80;;
14060;SDS011;7105;43.616;1.434;2023-08-12T00:08:58;7.43;;;5.35;;
14060;SDS011;7105;43.616;1.434;2023-08-12T00:11:24;9.85;;;5.80;;
14060;SDS011;7105;43.616;1.434;2023-08-12T00:13:49;10.05;;;5.78;;
14060;SDS011;7105;43.616;1.434;2023-08-12T00:16:15;7.82;;;5.40;;
14060;SDS011;7105;43.616;1.434;2023-08-12T00:18:41;9.95;;;5.50;;
14060;SDS011;7105;43.616;1.434;2023-08-12T00:21:08;10.60;;;5.93;;
14060;SDS011;7105;43.616;1.434;2023-08-12T00:23:37;9.23;;;6.00;;
14060;SDS011;7105;43.616;1.434;2023-08-12T00:26:08;11.55;;;5.30;;
14060;SDS011;7105;43.616;1.434;2023-08-12T00:28:34;8.43;;;5.15;;
14060;SDS011;7105;43.616;1.434;2023-08-12T00:30:59;9.18;;;5.00;;
14060;SDS011;7105;43.616;1.434;2023-08-12T00:33:25;8.02;;;5.18;;
14060;SDS011;7105;43.616;1.434;2023-08-12T00:35:51;9.20;;;5.68;;
14060;SDS011;7105;43.616;1.434;2023-08-12T00:38:17;6.63;;;5.03;;
14060;SDS011;7105;43.616;1.434;2023-08-12T00:40:42;10.15;;;5.63;;
14060;SDS011;7105;43.616;1.434;2023-08-12T00:43:08;8.80;;;5.20;;
14060;SDS011;7105;43.616;1.434;2023-08-12T00:45:34;8.07;;;5.32;;
14060;SDS011;7105;43.616;1.434;2023-08-12T00:48:01;8.20;;;5.32;;
14060;SDS011;7105;43.616;1.434;2023-08-12T00:50:27;9.48;;;5.45;;
14060;SDS011;7105;43.616;1.434;2023-08-12T00:52:54;8.70;;;4.88;;
14060;SDS011;7105;43.616;1.434;2023-08-12T00:55:20;8.93;;;5.32;;
14060;SDS011;7105;43.616;1.434;2023-08-12T00:57:46;10.85;;;5.07;;
14060;SDS011;7105;43.616;1.434;2023-08-12T01:00:12;10.50;;;5.63;;
14060;SDS011;7105;43.616;1.434;2023-08-12T01:02:42;9.05;;;5.10;;
14060;SDS011;7105;43.616;1.434;2023-08-12T01:05:13;13.82;;;5.78;;
14060;SDS011;7105;43.616;1.434;2023-08-12T01:07:39;8.48;;;5.43;;
14060;SDS011;7105;43.616;1.434;2023-08-12T01:10:05;11.52;;;5.65;;
14060;SDS011;7105;43.616;1.434;2023-08-12T01:12:36;9.65;;;5.30;;
14060;SDS011;7105;43.616;1.434;2023-08-12T01:15:14;8.82;;;5.45;;
14060;SDS011;7105;43.616;1.434;2023-08-12T01:17:45;10.20;;;5.45;;
14060;SDS011;7105;43.616;1.434;2023-08-12T01:20:17;12.85;;;5.63;;
14060;SDS011;7105;43.616;1.434;2023-08-12T01:22:49;7.22;;;5.03;;
14060;SDS011;7105;43.616;1.434;2023-08-12T01:25:23;11.40;;;5.95;;
14060;SDS011;7105;43.616;1.434;2023-08-12T01:27:49;10.20;;;5.50;;
14060;SDS011;7105;43.616;1.434;2023-08-12T01:30:15;8.50;;;5.75;;
14060;SDS011;7105;43.616;1.434;2023-08-12T01:35:30;11.30;;;5.90;;
14060;SDS011;7105;43.616;1.434;2023-08-12T01:38:04;7.88;;;5.82;;
14060;SDS011;7105;43.616;1.434;2023-08-12T01:40:32;9.65;;;6.00;;
14060;SDS011;7105;43.616;1.434;2023-08-12T01:42:58;7.75;;;5.50;;
14060;SDS011;7105;43.616;1.434;2023-08-12T01:45:25;8.30;;;5.50;;
14060;SDS011;7105;43.616;1.434;2023-08-12T01:47:51;8.07;;;5.40;;
14060;SDS011;7105;43.616;1.434;2023-08-12T01:50:17;11.60;;;5.65;;
14060;SDS011;7105;43.616;1.434;2023-08-12T01:52:44;9.27;;;5.82;;
14060;SDS011;7105;43.616;1.434;2023-08-12T01:55:09;9.00;;;6.03;;
14060;SDS011;7105;43.616;1.434;2023-08-12T01:57:35;9.13;;;5.35;;
14060;SDS011;7105;43.616;1.434;2023-08-12T02:00:01;9.63;;;5.70;;
14060;SDS011;7105;43.616;1.434;2023-08-12T02:02:27;12.48;;;6.05;;
14060;SDS011;7105;43.616;1.434;2023-08-12T02:04:52;10.65;;;5.85;;
14060;SDS011;7105;43.616;1.434;2023-08-12T02:07:18;10.10;;;6.22;;
14060;SDS011;7105;43.616;1.434;2023-08-12T02:09:44;10.45;;;5.93;;
14060;SDS011;7105;43.616;1.434;2023-08-12T02:12:10;11.00;;;5.88;;
14060;SDS011;7105;43.616;1.434;2023-08-12T02:14:35;11.60;;;6.07;;
14060;SDS011;7105;43.616;1.434;2023-08-12T02:17:04;8.63;;;6.07;;
14060;SDS011;7105;43.616;1.434;2023-08-12T02:19:33;10.10;;;5.57;;
14060;SDS011;7105;43.616;1.434;2023-08-12T02:21:59;10.48;;;5.45;;
14060;SDS011;7105;43.616;1.434;2023-08-12T02:24:26;9.25;;;5.78;;
14060;SDS011;7105;43.616;1.434;2023-08-12T02:26:52;10.75;;;6.50;;
14060;SDS011;7105;43.616;1.434;2023-08-12T02:29:18;10.88;;;6.13;;
14060;SDS011;7105;43.616;1.434;2023-08-12T02:31:44;10.77;;;5.55;;
14060;SDS011;7105;43.616;1.434;2023-08-12T02:34:10;9.23;;;6.28;;
14060;SDS011;7105;43.616;1.434;2023-08-12T02:36:35;11.20;;;5.90;;
14060;SDS011;7105;43.616;1.434;2023-08-12T02:39:01;11.55;;;6.47;;
14060;SDS011;7105;43.616;1.434;2023-08-12T02:41:27;11.38;;;6.20;;
14060;SDS011;7105;43.616;1.434;2023-08-12T02:43:52;9.70;;;6.30;;
14060;SDS011;7105;43.616;1.434;2023-08-12T02:46:18;9.43;;;6.03;;
14060;SDS011;7105;43.616;1.434;2023-08-12T02:48:44;7.95;;;5.55;;
14060;SDS011;7105;43.616;1.434;2023-08-12T02:51:12;10.65;;;6.20;;
14060;SDS011;7105;43.616;1.434;2023-08-12T02:53:38;13.20;;;6.22;;
14060;SDS011;7105;43.616;1.434;2023-08-12T02:56:03;10.88;;;6.35;;
14060;SDS011;7105;43.616;1.434;2023-08-12T02:58:29;9.68;;;5.97;;
14060;SDS011;7105;43.616;1.434;2023-08-12T03:00:55;9.90;;;6.18;;
14060;SDS011;7105;43.616;1.434;2023-08-12T03:03:20;11.20;;;5.65;;
14060;SDS011;7105;43.616;1.434;2023-08-12T03:05:49;16.95;;;6.35;;
14060;SDS011;7105;43.616;1.434;2023-08-12T03:08:15;13.55;;;6.53;;
14060;SDS011;7105;43.616;1.434;2023-08-12T03:10:40;12.75;;;5.95;;
14060;SDS011;7105;43.616;1.434;2023-08-12T03:13:06;11.27;;;6.15;;
14060;SDS011;7105;43.616;1.434;2023-08-12T03:15:32;9.90;;;6.25;;
14060;SDS011;7105;43.616;1.434;2023-08-12T03:17:58;9.80;;;6.38;;
14060;SDS011;7105;43.616;1.434;2023-08-12T03:20:23;9.52;;;6.35;;
14060;SDS011;7105;43.616;1.434;2023-08-12T03:22:49;11.93;;;6.72;;
14060;SDS011;7105;43.616;1.434;2023-08-12T03:25:15;15.38;;;6.65;;
14060;SDS011;7105;43.616;1.434;2023-08-12T03:27:40;10.63;;;6.13;;
14060;SDS011;7105;43.616;1.434;2023-08-12T03:30:07;8.63;;;5.80;;
14060;SDS011;7105;43.616;1.434;2023-08-12T03:32:33;9.48;;;6.40;;
14060;SDS011;7105;43.616;1.434;2023-08-12T03:34:58;10.55;;;6.20;;
14060;SDS011;7105;43.616;1.434;2023-08-12T03:37:25;9.48;;;6.22;;
14060;SDS011;7105;43.616;1.434;2023-08-12T03:39:51;10.15;;;6.63;;
14060;SDS011;7105;43.616;1.434;2023-08-12T03:42:17;11.57;;;6.57;;
14060;SDS011;7105;43.616;1.434;2023-08-12T03:44:45;11.27;;;6.75;;
14060;SDS011;7105;43.616;1.434;2023-08-12T03:47:11;10.30;;;6.43;;
14060;SDS011;7105;43.616;1.434;2023-08-12T03:49:37;11.25;;;6.78;;
14060;SDS011;7105;43.616;1.434;2023-08-12T03:52:03;12.05;;;6.80;;
14060;SDS011;7105;43.616;1.434;2023-08-12T03:54:32;8.73;;;6.90;;
14060;SDS011;7105;43.616;1.434;2023-08-12T03:56:58;11.35;;;6.68;;
14060;SDS011;7105;43.616;1.434;2023-08-12T03:59:23;11.60;;;6.43;;
14060;SDS011;7105;43.616;1.434;2023-08-12T04:01:49;13.63;;;7.03;;
14060;SDS011;7105;43.616;1.434;2023-08-12T04:04:14;10.93;;;6.40;;
14060;SDS011;7105;43.616;1.434;2023-08-12T04:06:40;11.88;;;6.50;;
14060;SDS011;7105;43.616;1.434;2023-08-12T04:09:06;13.30;;;7.07;;
14060;SDS011;7105;43.616;1.434;2023-08-12T04:11:31;11.48;;;7.10;;
14060;SDS011;7105;43.616;1.434;2023-08-12T04:13:57;12.65;;;7.07;;
14060;SDS011;7105;43.616;1.434;2023-08-12T04:16:23;10.00;;;6.53;;
14060;SDS011;7105;43.616;1.434;2023-08-12T04:18:48;10.30;;;6.47;;
14060;SDS011;7105;43.616;1.434;2023-08-12T04:21:14;11.63;;;6.95;;
14060;SDS011;7105;43.616;1.434;2023-08-12T04:23:43;11.35;;;6.57;;
14060;SDS011;7105;43.616;1.434;2023-08-12T04:26:08;8.18;;;6.22;;
14060;SDS011;7105;43.616;1.434;2023-08-12T04:28:34;10.20;;;6.68;;
14060;SDS011;7105;43.616;1.434;2023-08-12T04:31:00;10.95;;;6.82;;
14060;SDS011;7105;43.616;1.434;2023-08-12T04:33:25;11.40;;;6.63;;
14060;SDS011;7105;43.616;1.434;2023-08-12T04:35:52;10.10;;;6.60;;
14060;SDS011;7105;43.616;1.434;2023-08-12T04:38:18;9.63;;;6.10;;
14060;SDS011;7105;43.616;1.434;2023-08-12T04:40:44;15.55;;;6.45;;
14060;SDS011;7105;43.616;1.434;2023-08-12T04:43:09;12.98;;;6.95;;
14060;SDS011;7105;43.616;1.434;2023-08-12T04:45:35;10.95;;;7.07;;
14060;SDS011;7105;43.616;1.434;2023-08-12T04:48:03;10.75;;;6.35;;
14060;SDS011;7105;43.616;1.434;2023-08-12T04:50:29;12.75;;;6.70;;
14060;SDS011;7105;43.616;1.434;2023-08-12T04:52:56;12.02;;;6.55;;
14060;SDS011;7105;43.616;1.434;2023-08-12T04:55:21;11.60;;;6.90;;
14060;SDS011;7105;43.616;1.434;2023-08-12T04:57:49;11.15;;;6.47;;
14060;SDS011;7105;43.616;1.434;2023-08-12T05:00:15;11.88;;;6.65;;
14060;SDS011;7105;43.616;1.434;2023-08-12T05:02:42;9.80;;;6.65;;
14060;SDS011;7105;43.616;1.434;2023-08-12T05:05:07;10.18;;;6.70;;
14060;SDS011;7105;43.616;1.434;2023-08-12T05:07:33;15.57;;;6.85;;
14060;SDS011;7105;43.616;1.434;2023-08-12T05:09:59;10.50;;;6.53;;
14060;SDS011;7105;43.616;1.434;2023-08-12T05:12:24;14.20;;;6.55;;
14060;SDS011;7105;43.616;1.434;2023-08-12T05:14:50;11.75;;;6.72;;
14060;SDS011;7105;43.616;1.434;2023-08-12T05:17:16;11.85;;;7.68;;
14060;SDS011;7105;43.616;1.434;2023-08-12T05:19:42;11.40;;;6.50;;
14060;SDS011;7105;43.616;1.434;2023-08-12T05:22:07;10.40;;;6.22;;
14060;SDS011;7105;43.616;1.434;2023-08-12T05:24:33;10.20;;;5.95;;
14060;SDS011;7105;43.616;1.434;2023-08-12T05:26:58;13.25;;;6.53;;
14060;SDS011;7105;43.616;1.434;2023-08-12T05:29:24;12.48;;;6.90;;
14060;SDS011;7105;43.616;1.434;2023-08-12T05:31:50;12.13;;;6.35;;
14060;SDS011;7105;43.616;1.434;2023-08-12T05:34:15;10.85;;;6.38;;
14060;SDS011;7105;43.616;1.434;2023-08-12T05:36:41;9.50;;;6.03;;
14060;SDS011;7105;43.616;1.434;2023-08-12T05:39:07;11.93;;;6.03;;
14060;SDS011;7105;43.616;1.434;2023-08-12T05:41:32;9.20;;;5.43;;
14060;SDS011;7105;43.616;1.434;2023-08-12T05:43:58;8.45;;;5.53;;
14060;SDS011;7105;43.616;1.434;2023-08-12T05:46:23;9.20;;;6.05;;
14060;SDS011;7105;43.616;1.434;2023-08-12T05:48:49;10.80;;;5.80;;
14060;SDS011;7105;43.616;1.434;2023-08-12T05:51:15;11.90;;;5.78;;
14060;SDS011;7105;43.616;1.434;2023-08-12T05:53:40;11.30;;;6.10;;
14060;SDS011;7105;43.616;1.434;2023-08-12T05:56:06;7.72;;;5.22;;
14060;SDS011;7105;43.616;1.434;2023-08-12T05:58:32;9.80;;;5.53;;
14060;SDS011;7105;43.616;1.434;2023-08-12T06:00:57;9.65;;;5.43;;
14060;SDS011;7105;43.616;1.434;2023-08-12T06:03:23;7.40;;;5.30;;
14060;SDS011;7105;43.616;1.434;2023-08-12T06:05:49;10.90;;;5.72;;
14060;SDS011;7105;43.616;1.434;2023-08-12T06:08:14;8.13;;;5.50;;
14060;SDS011;7105;43.616;1.434;2023-08-12T06:10:40;12.27;;;5.68;;
14060;SDS011;7105;43.616;1.434;2023-08-12T06:13:06;9.25;;;5.47;;
14060;SDS011;7105;43.616;1.434;2023-08-12T06:15:32;9.75;;;5.57;;
14060;SDS011;7105;43.616;1.434;2023-08-12T06:17:58;12.35;;;6.00;;
14060;SDS011;7105;43.616;1.434;2023-08-12T06:20:25;10.70;;;5.70;;
14060;SDS011;7105;43.616;1.434;2023-08-12T06:22:51;11.77;;;5.90;;
14060;SDS011;7105;43.616;1.434;2023-08-12T06:25:17;12.95;;;6.13;;
14060;SDS011;7105;43.616;1.434;2023-08-12T06:27:43;8.98;;;5.90;;
14060;SDS011;7105;43.616;1.434;2023-08-12T06:30:09;8.70;;;6.05;;
14060;SDS011;7105;43.616;1.434;2023-08-12T06:32:36;11.38;;;6.32;;
14060;SDS011;7105;43.616;1.434;2023-08-12T06:35:02;14.02;;;6.90;;
14060;SDS011;7105;43.616;1.434;2023-08-12T06:37:28;12.50;;;6.60;;
14060;SDS011;7105;43.616;1.434;2023-08-12T06:39:53;8.75;;;6.55;;
14060;SDS011;7105;43.616;1.434;2023-08-12T06:42:20;12.57;;;6.53;;
14060;SDS011;7105;43.616;1.434;2023-08-12T06:44:46;11.10;;;6.45;;
14060;SDS011;7105;43.616;1.434;2023-08-12T06:47:14;8.85;;;6.40;;
14060;SDS011;7105;43.616;1.434;2023-08-12T06:49:40;10.23;;;6.70;;
14060;SDS011;7105;43.616;1.434;2023-08-12T06:52:06;9.98;;;7.18;;
14060;SDS011;7105;43.616;1.434;2023-08-12T06:54:32;10.35;;;6.15;;
14060;SDS011;7105;43.616;1.434;2023-08-12T06:56:57;10.95;;;5.95;;
14060;SDS011;7105;43.616;1.434;2023-08-12T06:59:23;10.65;;;5.82;;
14060;SDS011;7105;43.616;1.434;2023-08-12T07:01:49;12.32;;;6.35;;
14060;SDS011;7105;43.616;1.434;2023-08-12T07:04:14;10.82;;;6.85;;
14060;SDS011;7105;43.616;1.434;2023-08-12T07:06:40;9.40;;;5.50;;
14060;SDS011;7105;43.616;1.434;2023-08-12T07:09:06;11.52;;;6.18;;
14060;SDS011;7105;43.616;1.434;2023-08-12T07:11:31;9.35;;;6.63;;
14060;SDS011;7105;43.616;1.434;2023-08-12T07:13:57;12.32;;;6.35;;
14060;SDS011;7105;43.616;1.434;2023-08-12T07:16:23;10.73;;;6.82;;
14060;SDS011;7105;43.616;1.434;2023-08-12T07:18:48;12.95;;;6.55;;
14060;SDS011;7105;43.616;1.434;2023-08-12T07:21:14;9.27;;;6.25;;
14060;SDS011;7105;43.616;1.434;2023-08-12T07:23:40;12.07;;;6.50;;
14060;SDS011;7105;43.616;1.434;2023-08-12T07:26:06;10.68;;;6.93;;
14060;SDS011;7105;43.616;1.434;2023-08-12T07:28:32;10.77;;;6.13;;
14060;SDS011;7105;43.616;1.434;2023-08-12T07:31:00;8.05;;;6.38;;
14060;SDS011;7105;43.616;1.434;2023-08-12T07:33:26;10.52;;;5.88;;
14060;SDS011;7105;43.616;1.434;2023-08-12T07:35:52;9.43;;;6.50;;
14060;SDS011;7105;43.616;1.434;2023-08-12T07:38:17;13.30;;;6.28;;
14060;SDS011;7105;43.616;1.434;2023-08-12T07:40:43;9.60;;;6.40;;
14060;SDS011;7105;43.616;1.434;2023-08-12T07:43:09;8.23;;;6.55;;
14060;SDS011;7105;43.616;1.434;2023-08-12T07:45:35;9.38;;;6.18;;
14060;SDS011;7105;43.616;1.434;2023-08-12T07:48:00;10.00;;;6.57;;
14060;SDS011;7105;43.616;1.434;2023-08-12T07:50:26;9.13;;;6.70;;
14060;SDS011;7105;43.616;1.434;2023-08-12T07:52:52;9.40;;;6.55;;
14060;SDS011;7105;43.616;1.434;2023-08-12T07:55:18;11.68;;;6.38;;
14060;SDS011;7105;43.616;1.434;2023-08-12T07:57:44;10.48;;;7.07;;
14060;SDS011;7105;43.616;1.434;2023-08-12T08:00:10;11.18;;;7.18;;
14060;SDS011;7105;43.616;1.434;2023-08-12T08:02:37;11.35;;;7.85;;
14060;SDS011;7105;43.616;1.434;2023-08-12T08:05:04;11.10;;;7.18;;
14060;SDS011;7105;43.616;1.434;2023-08-12T08:07:30;9.85;;;6.75;;
14060;SDS011;7105;43.616;1.434;2023-08-12T08:09:56;11.38;;;7.05;;
14060;SDS011;7105;43.616;1.434;2023-08-12T08:12:22;9.57;;;7.00;;
14060;SDS011;7105;43.616;1.434;2023-08-12T08:14:48;11.02;;;7.13;;
14060;SDS011;7105;43.616;1.434;2023-08-12T08:17:14;11.30;;;9.00;;
14060;SDS011;7105;43.616;1.434;2023-08-12T08:19:39;8.82;;;7.90;;
14060;SDS011;7105;43.616;1.434;2023-08-12T08:22:05;9.02;;;7.50;;
14060;SDS011;7105;43.616;1.434;2023-08-12T08:24:31;12.30;;;7.50;;
14060;SDS011;7105;43.616;1.434;2023-08-12T08:26:56;9.73;;;7.95;;
14060;SDS011;7105;43.616;1.434;2023-08-12T08:29:22;9.52;;;7.72;;
14060;SDS011;7105;43.616;1.434;2023-08-12T08:31:48;11.45;;;7.50;;
14060;SDS011;7105;43.616;1.434;2023-08-12T08:34:14;9.90;;;7.97;;
14060;SDS011;7105;43.616;1.434;2023-08-12T08:36:40;8.68;;;6.75;;
14060;SDS011;7105;43.616;1.434;2023-08-12T08:39:06;9.25;;;7.20;;
14060;SDS011;7105;43.616;1.434;2023-08-12T08:41:33;9.18;;;6.90;;
14060;SDS011;7105;43.616;1.434;2023-08-12T08:44:03;12.55;;;8.07;;
14060;SDS011;7105;43.616;1.434;2023-08-12T08:46:33;12.23;;;7.68;;
14060;SDS011;7105;43.616;1.434;2023-08-12T08:48:59;9.65;;;7.15;;
14060;SDS011;7105;43.616;1.434;2023-08-12T08:51:31;9.77;;;7.13;;
14060;SDS011;7105;43.616;1.434;2023-08-12T08:53:57;10.95;;;7.32;;
14060;SDS011;7105;43.616;1.434;2023-08-12T08:56:24;10.73;;;7.15;;
14060;SDS011;7105;43.616;1.434;2023-08-12T08:58:50;11.00;;;7.38;;
14060;SDS011;7105;43.616;1.434;2023-08-12T09:01:17;8.90;;;7.30;;
14060;SDS011;7105;43.616;1.434;2023-08-12T09:03:45;11.57;;;8.07;;
14060;SDS011;7105;43.616;1.434;2023-08-12T09:06:12;11.65;;;7.85;;
14060;SDS011;7105;43.616;1.434;2023-08-12T09:08:38;13.13;;;8.30;;
14060;SDS011;7105;43.616;1.434;2023-08-12T09:11:07;9.77;;;7.47;;
14060;SDS011;7105;43.616;1.434;2023-08-12T09:13:33;12.07;;;7.60;;
14060;SDS011;7105;43.616;1.434;2023-08-12T09:15:59;12.27;;;7.78;;
14060;SDS011;7105;43.616;1.434;2023-08-12T09:18:25;13.43;;;7.50;;
14060;SDS011;7105;43.616;1.434;2023-08-12T09:20:51;9.82;;;7.25;;
14060;SDS011;7105;43.616;1.434;2023-08-12T09:23:17;12.05;;;7.85;;
14060;SDS011;7105;43.616;1.434;2023-08-12T09:25:43;9.82;;;7.50;;
14060;SDS011;7105;43.616;1.434;2023-08-12T09:28:10;10.35;;;7.63;;
14060;SDS011;7105;43.616;1.434;2023-08-12T09:30:37;11.90;;;7.85;;
14060;SDS011;7105;43.616;1.434;2023-08-12T09:33:04;12.65;;;7.53;;
14060;SDS011;7105;43.616;1.434;2023-08-12T09:35:39;12.15;;;7.97;;
14060;SDS011;7105;43.616;1.434;2023-08-12T09:38:12;11.90;;;8.07;;
14060;SDS011;7105;43.616;1.434;2023-08-12T09:40:39;10.70;;;7.35;;
14060;SDS011;7105;43.616;1.434;2023-08-12T09:43:05;10.02;;;7.53;;
14060;SDS011;7105;43.616;1.434;2023-08-12T09:45:31;13.23;;;7.82;;
14060;SDS011;7105;43.616;1.434;2023-08-12T09:47:58;10.25;;;7.03;;
14060;SDS011;7105;43.616;1.434;2023-08-12T09:50:27;11.80;;;8.10;;
14060;SDS011;7105;43.616;1.434;2023-08-12T09:52:54;11.38;;;8.00;;
14060;SDS011;7105;43.616;1.434;2023-08-12T09:55:24;14.40;;;8.85;;
14060;SDS011;7105;43.616;1.434;2023-08-12T09:57:53;13.18;;;8.35;;
14060;SDS011;7105;43.616;1.434;2023-08-12T10:00:20;13.00;;;8.45;;
14060;SDS011;7105;43.616;1.434;2023-08-12T10:02:48;11.95;;;8.20;;
14060;SDS011;7105;43.616;1.434;2023-08-12T10:05:27;11.27;;;8.40;;
14060;SDS011;7105;43.616;1.434;2023-08-12T10:07:53;11.35;;;8.52;;
14060;SDS011;7105;43.616;1.434;2023-08-12T10:10:20;11.13;;;8.30;;
14060;SDS011;7105;43.616;1.434;2023-08-12T10:12:47;10.40;;;8.15;;
14060;SDS011;7105;43.616;1.434;2023-08-12T10:15:13;12.48;;;8.93;;
14060;SDS011;7105;43.616;1.434;2023-08-12T10:17:42;10.45;;;8.20;;
14060;SDS011;7105;43.616;1.434;2023-08-12T10:20:11;11.10;;;8.32;;
14060;SDS011;7105;43.616;1.434;2023-08-12T10:22:38;11.35;;;7.43;;
14060;SDS011;7105;43.616;1.434;2023-08-12T10:25:06;9.82;;;7.30;;
14060;SDS011;7105;43.616;1.434;2023-08-12T10:27:34;10.05;;;8.27;;
14060;SDS011;7105;43.616;1.434;2023-08-12T10:30:02;13.77;;;8.35;;
14060;SDS011;7105;43.616;1.434;2023-08-12T10:32:28;13.88;;;8.07;;
14060;SDS011;7105;43.616;1.434;2023-08-12T10:34:57;9.07;;;7.53;;
14060;SDS011;7105;43.616;1.434;2023-08-12T10:37:26;9.27;;;7.38;;
14060;SDS011;7105;43.616;1.434;2023-08-12T10:39:56;10.35;;;8.05;;
14060;SDS011;7105;43.616;1.434;2023-08-12T10:45:13;11.85;;;8.15;;
14060;SDS011;7105;43.616;1.434;2023-08-12T10:50:26;11.25;;;7.07;;
14060;SDS011;7105;43.616;1.434;2023-08-12T10:52:52;12.07;;;6.95;;
14060;SDS011;7105;43.616;1.434;2023-08-12T10:55:20;9.35;;;8.05;;
14060;SDS011;7105;43.616;1.434;2023-08-12T10:57:51;10.68;;;7.57;;
14060;SDS011;7105;43.616;1.434;2023-08-12T11:00:27;11.90;;;7.20;;
14060;SDS011;7105;43.616;1.434;2023-08-12T11:02:55;9.50;;;6.78;;
14060;SDS011;7105;43.616;1.434;2023-08-12T11:05:22;11.95;;;7.35;;
14060;SDS011;7105;43.616;1.434;2023-08-12T11:07:55;9.05;;;6.43;;
14060;SDS011;7105;43.616;1.434;2023-08-12T11:10:23;9.82;;;6.78;;
14060;SDS011;7105;43.616;1.434;2023-08-12T11:12:54;10.20;;;6.45;;
14060;SDS011;7105;43.616;1.434;2023-08-12T11:15:37;10.13;;;6.63;;
14060;SDS011;7105;43.616;1.434;2023-08-12T11:20:38;8.95;;;6.55;;
14060;SDS011;7105;43.616;1.434;2023-08-12T11:23:04;9.25;;;6.22;;
14060;SDS011;7105;43.616;1.434;2023-08-12T11:25:31;8.40;;;6.35;;
14060;SDS011;7105;43.616;1.434;2023-08-12T11:27:58;10.63;;;6.30;;
14060;SDS011;7105;43.616;1.434;2023-08-12T11:30:24;7.80;;;6.35;;
14060;SDS011;7105;43.616;1.434;2023-08-12T11:32:54;8.15;;;5.85;;
14060;SDS011;7105;43.616;1.434;2023-08-12T11:35:21;10.07;;;6.07;;
14060;SDS011;7105;43.616;1.434;2023-08-12T11:37:48;9.60;;;6.45;;
14060;SDS011;7105;43.616;1.434;2023-08-12T11:40:16;8.18;;;6.15;;
14060;SDS011;7105;43.616;1.434;2023-08-12T11:42:43;8.30;;;5.88;;
14060;SDS011;7105;43.616;1.434;2023-08-12T11:45:10;9.93;;;6.47;;
14060;SDS011;7105;43.616;1.434;2023-08-12T11:47:37;8.80;;;6.35;;
14060;SDS011;7105;43.616;1.434;2023-08-12T11:50:08;12.05;;;6.40;;
14060;SDS011;7105;43.616;1.434;2023-08-12T11:52:37;10.18;;;6.80;;
14060;SDS011;7105;43.616;1.434;2023-08-12T11:55:05;8.85;;;6.15;;
14060;SDS011;7105;43.616;1.434;2023-08-12T11:57:31;8.50;;;6.18;;
14060;SDS011;7105;43.616;1.434;2023-08-12T12:00:02;11.20;;;6.20;;
14060;SDS011;7105;43.616;1.434;2023-08-12T12:02:36;8.68;;;6.30;;
14060;SDS011;7105;43.616;1.434;2023-08-12T12:05:10;8.52;;;6.38;;
14060;SDS011;7105;43.616;1.434;2023-08-12T12:07:36;8.65;;;6.22;;
14060;SDS011;7105;43.616;1.434;2023-08-12T12:10:02;9.15;;;6.00;;
14060;SDS011;7105;43.616;1.434;2023-08-12T12:12:28;10.00;;;6.22;;
14060;SDS011;7105;43.616;1.434;2023-08-12T12:14:53;8.65;;;6.00;;
14060;SDS011;7105;43.616;1.434;2023-08-12T12:17:21;8.93;;;6.38;;
14060;SDS011;7105;43.616;1.434;2023-08-12T12:19:51;12.52;;;6.10;;
14060;SDS011;7105;43.616;1.434;2023-08-12T12:22:25;8.82;;;5.93;;
14060;SDS011;7105;43.616;1.434;2023-08-12T12:25:05;7.32;;;5.50;;
14060;SDS011;7105;43.616;1.434;2023-08-12T12:27:32;10.95;;;5.50;;
14060;SDS011;7105;43.616;1.434;2023-08-12T12:29:59;8.30;;;5.30;;
14060;SDS011;7105;43.616;1.434;2023-08-12T12:32:25;9.23;;;5.32;;
14060;SDS011;7105;43.616;1.434;2023-08-12T12:34:51;8.82;;;5.20;;
14060;SDS011;7105;43.616;1.434;2023-08-12T12:37:18;9.63;;;5.38;;
14060;SDS011;7105;43.616;1.434;2023-08-12T12:39:43;9.70;;;5.40;;
14060;SDS011;7105;43.616;1.434;2023-08-12T12:42:10;11.57;;;5.20;;
14060;SDS011;7105;43.616;1.434;2023-08-12T12:44:36;8.63;;;5.78;;
14060;SDS011;7105;43.616;1.434;2023-08-12T12:47:02;11.10;;;5.32;;
14060;SDS011;7105;43.616;1.434;2023-08-12T12:49:28;8.93;;;5.10;;
14060;SDS011;7105;43.616;1.434;2023-08-12T12:51:54;9.00;;;5.07;;
14060;SDS011;7105;43.616;1.434;2023-08-12T12:54:20;7.80;;;4.72;;
14060;SDS011;7105;43.616;1.434;2023-08-12T12:56:45;8.23;;;5.15;;
14060;SDS011;7105;43.616;1.434;2023-08-12T12:59:11;10.20;;;5.00;;
14060;SDS011;7105;43.616;1.434;2023-08-12T13:01:39;7.13;;;4.82;;
14060;SDS011;7105;43.616;1.434;2023-08-12T13:04:05;9.25;;;5.00;;
14060;SDS011;7105;43.616;1.434;2023-08-12T13:06:33;6.40;;;4.93;;
14060;SDS011;7105;43.616;1.434;2023-08-12T13:08:59;11.57;;;5.63;;
14060;SDS011;7105;43.616;1.434;2023-08-12T13:11:25;8.00;;;5.10;;
14060;SDS011;7105;43.616;1.434;2023-08-12T13:13:50;10.25;;;5.32;;
14060;SDS011;7105;43.616;1.434;2023-08-12T13:16:16;7.75;;;4.82;;
14060;SDS011;7105;43.616;1.434;2023-08-12T13:18:42;8.00;;;5.32;;
14060;SDS011;7105;43.616;1.434;2023-08-12T13:21:08;7.47;;;5.40;;
14060;SDS011;7105;43.616;1.434;2023-08-12T13:23:34;10.15;;;5.35;;
14060;SDS011;7105;43.616;1.434;2023-08-12T13:25:59;6.93;;;5.00;;
14060;SDS011;7105;43.616;1.434;2023-08-12T13:28:25;8.05;;;5.30;;
14060;SDS011;7105;43.616;1.434;2023-08-12T13:30:51;7.78;;;5.10;;
14060;SDS011;7105;43.616;1.434;2023-08-12T13:33:16;9.20;;;5.20;;
14060;SDS011;7105;43.616;1.434;2023-08-12T13:35:42;7.43;;;5.35;;
14060;SDS011;7105;43.616;1.434;2023-08-12T13:38:08;10.77;;;5.35;;
14060;SDS011;7105;43.616;1.434;2023-08-12T13:40:33;6.38;;;5.53;;
14060;SDS011;7105;43.616;1.434;2023-08-12T13:42:59;8.70;;;5.45;;
14060;SDS011;7105;43.616;1.434;2023-08-12T13:45:25;8.02;;;5.10;;
14060;SDS011;7105;43.616;1.434;2023-08-12T13:47:51;6.90;;;4.90;;
14060;SDS011;7105;43.616;1.434;2023-08-12T13:50:17;8.25;;;5.13;;
14060;SDS011;7105;43.616;1.434;2023-08-12T13:52:43;6.47;;;4.82;;
14060;SDS011;7105;43.616;1.434;2023-08-12T13:55:11;7.75;;;5.30;;
14060;SDS011;7105;43.616;1.434;2023-08-12T13:57:37;10.13;;;5.10;;
14060;SDS011;7105;43.616;1.434;2023-08-12T14:00:02;7.65;;;5.07;;
14060;SDS011;7105;43.616;1.434;2023-08-12T14:02:34;8.07;;;5.47;;
14060;SDS011;7105;43.616;1.434;2023-08-12T14:05:00;6.93;;;5.28;;
14060;SDS011;7105;43.616;1.434;2023-08-12T14:07:26;8.20;;;5.32;;
14060;SDS011;7105;43.616;1.434;2023-08-12T14:09:51;7.28;;;5.15;;
14060;SDS011;7105;43.616;1.434;2023-08-12T14:12:17;8.93;;;5.18;;
14060;SDS011;7105;43.616;1.434;2023-08-12T14:14:43;7.35;;;5.28;;
14060;SDS011;7105;43.616;1.434;2023-08-12T14:17:08;8.10;;;5.28;;
14060;SDS011;7105;43.616;1.434;2023-08-12T14:19:38;9.95;;;5.18;;
14060;SDS011;7105;43.616;1.434;2023-08-12T14:22:04;9.80;;;5.53;;
14060;SDS011;7105;43.616;1.434;2023-08-12T14:24:30;8.48;;;5.22;;
14060;SDS011;7105;43.616;1.434;2023-08-12T14:26:56;6.75;;;4.80;;
14060;SDS011;7105;43.616;1.434;2023-08-12T14:29:21;8.65;;;5.47;;
14060;SDS011;7105;43.616;1.434;2023-08-12T14:31:47;8.80;;;5.30;;
14060;SDS011;7105;43.616;1.434;2023-08-12T14:34:12;6.75;;;4.93;;
14060;SDS011;7105;43.616;1.434;2023-08-12T14:36:38;7.78;;;4.90;;
14060;SDS011;7105;43.616;1.434;2023-08-12T14:39:04;8.13;;;5.10;;
14060;SDS011;7105;43.616;1.434;2023-08-12T14:41:29;7.82;;;5.22;;
14060;SDS011;7105;43.616;1.434;2023-08-12T14:43:55;7.72;;;5.13;;
14060;SDS011;7105;43.616;1.434;2023-08-12T14:46:21;12.63;;;5.28;;
14060;SDS011;7105;43.616;1.434;2023-08-12T14:48:47;8.52;;;5.22;;
14060;SDS011;7105;43.616;1.434;2023-08-12T14:51:12;7.30;;;4.82;;
14060;SDS011;7105;43.616;1.434;2023-08-12T14:53:38;7.93;;;4.95;;
14060;SDS011;7105;43.616;1.434;2023-08-12T14:56:03;8.73;;;5.10;;
14060;SDS011;7105;43.616;1.434;2023-08-12T14:58:29;8.73;;;5.40;;
14060;SDS011;7105;43.616;1.434;2023-08-12T15:00:55;8.25;;;5.40;;
14060;SDS011;7105;43.616;1.434;2023-08-12T15:03:21;8.68;;;5.00;;